createdAt,value
2023-01-11T00:00:20.351Z,2.80
2023-01-11T00:02:49.137Z,2.80
2023-01-11T00:05:17.993Z,2.90
2023-01-11T00:07:46.741Z,2.80
2023-01-11T00:10:17.830Z,2.80
2023-01-11T00:12:46.899Z,2.80
2023-01-11T00:15:16.203Z,2.70
2023-01-11T00:17:44.991Z,2.70
2023-01-11T00:20:13.843Z,2.60
2023-01-11T00:22:42.521Z,2.50
2023-01-11T00:25:11.497Z,2.60
2023-01-11T00:27:41.603Z,2.70
2023-01-11T00:30:12.497Z,2.70
2023-01-11T00:32:41.196Z,2.70
2023-01-11T00:35:10.804Z,2.70
2023-01-11T00:37:39.685Z,2.70
2023-01-11T00:40:10.116Z,2.70
2023-01-11T00:42:57.617Z,2.80
2023-01-11T00:45:44.153Z,2.80
2023-01-11T00:48:12.943Z,2.80
2023-01-11T00:50:42.793Z,2.80
2023-01-11T00:53:11.689Z,2.80
2023-01-11T00:55:40.349Z,2.60
2023-01-11T00:58:10.437Z,2.70
2023-01-11T01:00:39.151Z,2.70
2023-01-11T01:03:07.803Z,2.90
2023-01-11T01:05:40.007Z,2.90
2023-01-11T01:08:08.854Z,2.70
2023-01-11T01:10:37.577Z,2.70
2023-01-11T01:13:23.747Z,2.80
2023-01-11T01:15:59.810Z,2.70
2023-01-11T01:18:28.479Z,2.80
2023-01-11T01:20:57.551Z,2.80
2023-01-11T01:23:26.222Z,2.70
2023-01-11T01:25:54.875Z,2.60
2023-01-11T01:28:23.528Z,2.70
2023-01-11T01:30:52.815Z,2.60
2023-01-11T01:33:23.569Z,2.70
2023-01-11T01:35:52.297Z,2.80
2023-01-11T01:38:21.031Z,2.80
2023-01-11T01:40:50.602Z,2.80
2023-01-11T01:43:19.979Z,2.70
2023-01-11T01:45:50.357Z,2.80
2023-01-11T01:48:26.793Z,2.80
2023-01-11T01:51:01.371Z,2.80
2023-01-11T01:53:37.216Z,2.70
2023-01-11T01:56:11.325Z,2.80
2023-01-11T01:58:47.453Z,2.80
2023-01-11T02:01:35.718Z,2.80
2023-01-11T02:04:15.616Z,2.90
2023-01-11T02:06:44.962Z,2.80
2023-01-11T02:09:27.643Z,2.80
2023-01-11T02:11:58.752Z,2.90
2023-01-11T02:14:30.442Z,2.90
2023-01-11T02:17:00.134Z,2.90
2023-01-11T02:19:52.600Z,2.80
2023-01-11T02:23:26.432Z,2.80
2023-01-11T02:26:35.446Z,2.90
2023-01-11T02:29:19.607Z,2.80
2023-01-11T02:32:01.926Z,2.80
2023-01-11T02:34:42.629Z,2.90
2023-01-11T02:37:27.554Z,2.90
2023-01-11T02:40:08.147Z,2.90
2023-01-11T02:43:03.868Z,3.00
2023-01-11T02:45:47.406Z,2.90
2023-01-11T02:48:27.766Z,3.00
2023-01-11T02:51:08.668Z,3.00
2023-01-11T02:53:44.784Z,3.00
2023-01-11T02:56:20.390Z,3.10
2023-01-11T02:58:54.223Z,3.00
2023-01-11T03:01:25.716Z,3.00
2023-01-11T03:03:56.200Z,3.00
2023-01-11T03:06:29.805Z,3.00
2023-01-11T03:09:20.915Z,3.10
2023-01-11T03:12:29.875Z,3.10
2023-01-11T03:15:17.279Z,3.10
2023-01-11T03:18:07.442Z,3.10
2023-01-11T03:20:42.529Z,3.10
2023-01-11T03:23:22.489Z,3.10
2023-01-11T03:26:03.561Z,3.20
2023-01-11T03:28:47.436Z,3.10
2023-01-11T03:31:24.332Z,3.20
2023-01-11T03:34:04.054Z,3.20
2023-01-11T03:36:38.800Z,3.20
2023-01-11T03:39:17.546Z,3.10
2023-01-11T03:41:49.830Z,3.20
2023-01-11T03:44:22.788Z,3.20
2023-01-11T03:46:57.514Z,3.20
2023-01-11T03:49:34.490Z,3.30
2023-01-11T03:52:08.912Z,3.20
2023-01-11T03:54:39.163Z,3.30
2023-01-11T03:57:15.132Z,3.30
2023-01-11T03:59:44.510Z,3.30
2023-01-11T04:02:18.455Z,3.30
2023-01-11T04:04:52.225Z,3.30
2023-01-11T04:07:21.259Z,3.30
2023-01-11T04:09:50.327Z,3.40
2023-01-11T04:12:19.046Z,3.30
2023-01-11T04:14:47.901Z,3.30
2023-01-11T04:17:16.629Z,3.30
2023-01-11T04:19:45.431Z,3.40
2023-01-11T04:22:15.712Z,3.40
2023-01-11T04:24:44.856Z,3.40
2023-01-11T04:27:14.018Z,3.40
2023-01-11T04:29:43.128Z,3.40
2023-01-11T04:35:25.108Z,3.50
2023-01-11T04:37:56.943Z,3.50
2023-01-11T04:40:26.525Z,3.60
2023-01-11T04:42:54.126Z,3.60
2023-01-11T04:45:22.890Z,3.60
2023-01-11T04:47:56.686Z,3.60
2023-01-11T04:50:26.239Z,3.70
2023-01-11T04:52:56.531Z,3.60
2023-01-11T04:55:25.592Z,3.70
2023-01-11T04:57:54.668Z,3.70
2023-01-11T05:00:24.137Z,3.70
2023-01-11T05:02:53.281Z,3.70
2023-01-11T05:05:23.209Z,3.80
2023-01-11T05:07:52.178Z,3.80
2023-01-11T05:10:22.355Z,3.80
2023-01-11T05:12:52.756Z,3.90
2023-01-11T05:15:21.600Z,3.90
2023-01-11T05:17:50.502Z,3.90
2023-01-11T05:20:19.306Z,3.90
2023-01-11T05:22:48.280Z,3.90
2023-01-11T05:25:17.315Z,3.90
2023-01-11T05:27:47.740Z,3.90
2023-01-11T05:30:17.097Z,3.90
2023-01-11T05:32:45.834Z,3.90
2023-01-11T05:35:14.515Z,4.00
2023-01-11T05:37:43.235Z,4.00
2023-01-11T05:42:52.278Z,4.00
2023-01-11T05:45:29.359Z,4.00
2023-01-11T05:47:59.204Z,4.00
2023-01-11T05:50:28.666Z,4.00
2023-01-11T05:52:57.438Z,4.00
2023-01-11T05:55:26.355Z,4.00
2023-01-11T05:57:56.434Z,4.00
2023-01-11T06:00:25.875Z,4.00
2023-01-11T06:02:54.858Z,4.10
2023-01-11T06:05:24.783Z,4.00
2023-01-11T06:07:56.030Z,4.10
2023-01-11T06:10:28.653Z,4.10
2023-01-11T06:16:52.292Z,4.10
2023-01-11T06:19:20.949Z,4.20
2023-01-11T06:21:49.646Z,4.20
2023-01-11T06:24:55.008Z,4.20
2023-01-11T06:27:23.733Z,4.20
2023-01-11T06:29:54.183Z,4.30
2023-01-11T06:32:22.941Z,4.30
2023-01-11T06:34:51.642Z,4.30
2023-01-11T06:37:20.343Z,4.30
2023-01-11T06:39:56.064Z,4.30
2023-01-11T06:42:25.482Z,4.40
2023-01-11T06:45:19.707Z,4.40
2023-01-11T06:47:49.068Z,4.40
2023-01-11T06:50:18.679Z,4.50
2023-01-11T06:52:55.060Z,4.50
2023-01-11T06:55:24.996Z,4.50
2023-01-11T06:57:53.980Z,4.50
2023-01-11T07:00:25.325Z,4.60
2023-01-11T07:02:54.129Z,4.60
2023-01-11T07:05:26.273Z,4.60
2023-01-11T07:07:55.230Z,4.60
2023-01-11T07:10:23.888Z,4.70
2023-01-11T07:12:53.565Z,4.60
2023-01-11T07:15:24.171Z,4.70
2023-01-11T07:17:56.451Z,4.70
2023-01-11T07:20:26.621Z,4.70
2023-01-11T07:22:59.480Z,4.70
2023-01-11T07:25:28.787Z,4.70
2023-01-11T07:28:00.068Z,4.70
2023-01-11T07:30:34.405Z,4.70
2023-01-11T07:33:07.614Z,4.70
2023-01-11T07:35:36.348Z,4.70
2023-01-11T07:38:07.828Z,4.70
2023-01-11T07:40:37.408Z,4.70
2023-01-11T07:43:14.392Z,4.70
2023-01-11T07:45:49.204Z,4.70
2023-01-11T07:48:24.575Z,4.70
2023-01-11T07:50:53.950Z,4.70
2023-01-11T07:53:25.745Z,4.70
2023-01-11T07:55:56.303Z,4.80
2023-01-11T07:58:25.331Z,4.80
2023-01-11T08:00:55.540Z,4.80
2023-01-11T08:03:24.240Z,4.80
2023-01-11T08:05:54.260Z,4.80
2023-01-11T08:08:23.388Z,4.80
2023-01-11T08:11:12.329Z,4.90
2023-01-11T08:13:58.590Z,4.90
2023-01-11T08:16:28.767Z,4.90
2023-01-11T08:18:57.425Z,5.00
2023-01-11T08:21:26.197Z,5.00
2023-01-11T08:23:55.812Z,5.00
2023-01-11T08:26:25.189Z,5.10
2023-01-11T08:28:54.153Z,5.10
2023-01-11T08:31:24.633Z,5.10
2023-01-11T08:33:54.717Z,5.10
2023-01-11T08:36:24.548Z,5.10
2023-01-11T08:38:56.585Z,5.20
2023-01-11T08:41:26.112Z,5.20
2023-01-11T08:43:55.245Z,5.30
2023-01-11T08:46:23.961Z,5.30
2023-01-11T08:48:54.379Z,5.30
2023-01-11T08:51:23.297Z,5.40
2023-01-11T08:53:53.829Z,5.40
2023-01-11T08:56:22.786Z,5.50
2023-01-11T08:58:51.495Z,5.60
2023-01-11T09:01:20.443Z,5.60
2023-01-11T09:03:49.209Z,5.60
2023-01-11T09:06:19.721Z,5.70
2023-01-11T09:08:48.873Z,5.70
2023-01-11T09:11:31.452Z,5.70
2023-01-11T09:14:00.243Z,5.70
2023-01-11T09:16:29.075Z,5.70
2023-01-11T09:18:57.773Z,5.80
2023-01-11T09:21:27.952Z,5.80
2023-01-11T09:23:56.622Z,5.90
2023-01-11T09:26:25.328Z,6.00
2023-01-11T09:28:54.000Z,6.10
2023-01-11T09:31:23.003Z,6.30
2023-01-11T09:33:52.112Z,6.20
2023-01-11T09:36:25.182Z,6.20
2023-01-11T09:38:57.537Z,6.30
2023-01-11T09:41:45.084Z,6.40
2023-01-11T09:44:21.433Z,6.40
2023-01-11T09:46:56.467Z,6.40
2023-01-11T09:49:32.245Z,6.50
2023-01-11T09:52:24.383Z,6.40
2023-01-11T09:54:54.632Z,6.40
2023-01-11T09:57:41.921Z,6.50
2023-01-11T10:00:28.926Z,6.50
2023-01-11T10:03:26.011Z,6.50
2023-01-11T10:06:15.003Z,6.60
2023-01-11T10:18:38.882Z,6.60
2023-01-11T10:18:53.759Z,6.70
2023-01-11T10:21:33.298Z,6.60
2023-01-11T10:24:12.401Z,6.70
2023-01-11T10:26:41.871Z,6.70
2023-01-11T10:29:38.882Z,6.70
2023-01-11T10:32:34.753Z,6.80
2023-01-11T10:35:29.294Z,6.80
2023-01-11T10:38:23.009Z,6.90
2023-01-11T10:41:06.573Z,6.90
2023-01-11T10:43:41.726Z,6.90
2023-01-11T10:46:18.577Z,7.00
2023-01-11T10:48:48.201Z,7.10
2023-01-11T10:51:27.468Z,7.10
2023-01-11T10:54:18.024Z,7.10
2023-01-11T10:57:14.109Z,7.20
2023-01-11T11:00:10.653Z,7.10
2023-01-11T11:03:10.410Z,7.20
2023-01-11T11:05:49.149Z,7.20
2023-01-11T11:08:29.277Z,7.20
2023-01-11T11:11:04.222Z,7.30
2023-01-11T11:14:01.901Z,7.30
2023-01-11T11:16:53.553Z,7.30
2023-01-11T11:19:32.370Z,7.30
2023-01-11T11:22:01.727Z,7.40
2023-01-11T11:24:39.710Z,7.40
2023-01-11T11:27:24.520Z,7.40
2023-01-11T11:30:00.491Z,7.40
2023-01-11T11:32:37.440Z,7.40
2023-01-11T11:35:30.224Z,7.50
2023-01-11T11:37:59.032Z,7.50
2023-01-11T11:40:34.964Z,7.50
2023-01-11T11:43:21.544Z,7.50
2023-01-11T11:45:56.581Z,7.50
2023-01-11T11:48:30.982Z,7.50
2023-01-11T11:51:19.986Z,7.60
2023-01-11T11:53:55.649Z,7.60
2023-01-11T11:56:34.569Z,7.60
2023-01-11T11:59:10.891Z,7.60
2023-01-11T12:01:46.808Z,7.70
2023-01-11T12:04:19.908Z,7.70
2023-01-11T12:07:08.078Z,7.70
2023-01-11T12:09:45.673Z,7.80
2023-01-11T12:12:25.039Z,7.80
2023-01-11T12:15:31.583Z,7.90
2023-01-11T12:18:27.199Z,7.90
2023-01-11T12:20:57.618Z,7.90
2023-01-11T12:23:29.571Z,7.90
2023-01-11T12:26:17.996Z,7.90
2023-01-11T12:29:39.165Z,7.90
2023-01-11T12:32:33.792Z,8.00
2023-01-11T12:35:42.590Z,8.00
2023-01-11T12:38:31.107Z,8.00
2023-01-11T12:41:43.858Z,8.00
2023-01-11T12:44:26.046Z,8.00
2023-01-11T12:47:15.708Z,8.00
2023-01-11T12:49:55.743Z,8.10
2023-01-11T12:52:55.576Z,8.10
2023-01-11T12:56:01.895Z,8.10
2023-01-11T12:58:46.623Z,8.10
2023-01-11T13:01:42.602Z,8.10
2023-01-11T13:04:52.488Z,8.10
2023-01-11T13:07:45.748Z,8.10
2023-01-11T13:10:38.785Z,8.10
2023-01-11T13:13:23.055Z,8.10
2023-01-11T13:16:12.020Z,8.10
2023-01-11T13:19:10.813Z,8.10
2023-01-11T13:21:53.465Z,8.10
2023-01-11T13:24:31.567Z,8.10
2023-01-11T13:27:13.071Z,8.10
2023-01-11T13:29:49.929Z,8.10
2023-01-11T13:32:37.496Z,8.10
2023-01-11T13:35:20.445Z,8.20
2023-01-11T13:38:01.772Z,8.20
2023-01-11T13:40:43.542Z,8.10
2023-01-11T13:43:25.100Z,8.10
2023-01-11T13:46:08.695Z,8.10
2023-01-11T13:48:52.219Z,8.10
2023-01-11T13:51:38.154Z,8.10
2023-01-11T13:54:17.607Z,8.10
2023-01-11T13:56:56.908Z,8.10
2023-01-11T13:59:35.660Z,8.20
2023-01-11T14:02:14.293Z,8.10
2023-01-11T14:04:54.324Z,8.10
2023-01-11T14:07:41.550Z,8.10
2023-01-11T14:10:27.165Z,8.10
2023-01-11T14:13:43.488Z,8.10
2023-01-11T14:16:26.655Z,8.10
2023-01-11T14:19:07.246Z,8.10
2023-01-11T14:21:55.713Z,8.10
2023-01-11T14:24:28.993Z,8.10
2023-01-11T14:27:31.365Z,8.00
2023-01-11T14:30:27.092Z,8.00
2023-01-11T14:33:34.262Z,8.00
2023-01-11T14:36:44.204Z,8.00
2023-01-11T14:39:50.504Z,8.00
2023-01-11T14:42:54.414Z,8.00
2023-01-11T14:45:51.987Z,7.90
2023-01-11T14:48:36.113Z,7.80
2023-01-11T14:51:33.261Z,7.90
2023-01-11T14:54:09.425Z,7.90
2023-01-11T14:56:56.583Z,7.90
2023-01-11T14:59:38.136Z,7.90
2023-01-11T15:02:30.349Z,7.90
2023-01-11T15:05:45.604Z,7.90
2023-01-11T15:08:26.070Z,7.90
2023-01-11T15:11:00.209Z,7.90
2023-01-11T15:13:37.935Z,7.90
2023-01-11T15:16:38.480Z,7.90
2023-01-11T15:19:10.308Z,7.90
2023-01-11T15:21:50.521Z,7.90
2023-01-11T15:24:28.333Z,7.90
2023-01-11T15:26:59.490Z,7.90
2023-01-11T15:29:35.023Z,7.90
2023-01-11T15:32:28.272Z,7.90
2023-01-11T15:35:33.792Z,7.90
2023-01-11T15:38:21.135Z,7.90
2023-01-11T15:40:56.393Z,7.90
2023-01-11T15:43:59.799Z,7.90
2023-01-11T15:47:01.710Z,7.80
2023-01-11T15:50:22.005Z,7.80
2023-01-11T15:53:43.945Z,7.90
2023-01-11T15:56:47.929Z,7.80
2023-01-11T16:00:07.072Z,7.80
2023-01-11T16:03:27.125Z,7.80
2023-01-11T16:06:38.906Z,7.80
2023-01-11T16:10:09.781Z,7.90
2023-01-11T16:12:59.240Z,7.90
2023-01-11T16:15:55.062Z,7.90
2023-01-11T16:18:35.351Z,7.80
2023-01-11T16:21:12.843Z,7.80
2023-01-11T16:23:42.629Z,7.90
2023-01-11T16:26:18.959Z,7.90
2023-01-11T16:28:53.371Z,7.80
2023-01-11T16:31:22.140Z,7.80
2023-01-11T16:38:24.908Z,7.80
2023-01-11T16:40:56.500Z,7.70
2023-01-11T16:43:29.753Z,7.80
2023-01-11T16:45:58.688Z,7.80
2023-01-11T16:48:30.403Z,7.80
2023-01-11T16:51:03.810Z,7.70
2023-01-11T16:53:45.068Z,7.80
2023-01-11T16:56:19.682Z,7.80
2023-01-11T16:59:08.540Z,7.80
2023-01-11T17:01:52.182Z,7.80
2023-01-11T17:04:31.474Z,7.80
2023-01-11T17:07:29.283Z,7.80
2023-01-11T17:10:20.818Z,7.80
2023-01-11T17:17:40.765Z,7.80
2023-01-11T17:21:06.050Z,7.80
2023-01-11T17:23:34.784Z,7.80
2023-01-11T17:26:08.978Z,7.80
2023-01-11T17:28:48.312Z,7.80
2023-01-11T17:31:26.419Z,7.80
2023-01-11T17:34:06.023Z,7.80
2023-01-11T17:36:35.881Z,7.80
2023-01-11T17:39:06.984Z,7.80
2023-01-11T17:41:55.679Z,7.80
2023-01-11T17:44:43.114Z,7.80
2023-01-11T17:47:14.064Z,7.80
2023-01-11T17:54:21.819Z,7.70
2023-01-11T17:57:09.640Z,7.80
2023-01-11T18:00:21.609Z,7.70
2023-01-11T18:02:54.800Z,7.80
2023-01-11T18:05:30.073Z,7.80
2023-01-11T18:08:02.280Z,7.80
2023-01-11T18:10:37.440Z,7.80
2023-01-11T18:13:23.810Z,7.80
2023-01-11T18:15:56.229Z,7.80
2023-01-11T18:18:51.122Z,7.80
2023-01-11T18:21:42.006Z,7.80
2023-01-11T18:24:42.988Z,7.80
2023-01-11T18:27:26.951Z,7.80
2023-01-11T18:30:57.962Z,7.80
2023-01-11T18:34:43.961Z,7.80
2023-01-11T18:38:10.566Z,7.80
2023-01-11T18:40:43.966Z,7.80
2023-01-11T18:52:33.883Z,7.80
2023-01-11T18:55:39.288Z,7.80
2023-01-11T18:58:09.942Z,7.80
2023-01-11T19:00:44.888Z,7.90
2023-01-11T19:08:48.507Z,7.90
2023-01-11T19:11:48.461Z,7.90
2023-01-11T19:14:17.346Z,7.90
2023-01-11T19:16:46.321Z,7.90
2023-01-11T19:19:15.307Z,7.90
2023-01-11T19:21:44.066Z,7.90
2023-01-11T19:24:13.291Z,7.90
2023-01-11T19:27:36.081Z,7.90
2023-01-11T19:30:07.292Z,7.80
2023-01-11T19:33:57.329Z,7.90
2023-01-11T19:36:26.354Z,7.80
2023-01-11T19:38:55.262Z,7.80
2023-01-11T19:41:24.168Z,7.80
2023-01-11T19:43:54.927Z,7.80
2023-01-11T19:46:31.892Z,7.80
2023-01-11T19:49:03.896Z,7.80
2023-01-11T19:51:56.856Z,7.80
2023-01-11T19:54:32.090Z,7.80
2023-01-11T19:57:01.130Z,7.80
2023-01-11T19:59:31.412Z,7.80
2023-01-11T20:02:04.294Z,7.80
2023-01-11T20:04:35.231Z,7.70
2023-01-11T20:07:04.436Z,7.80
2023-01-11T20:09:33.323Z,7.70
2023-01-11T20:12:02.566Z,7.70
2023-01-11T20:14:33.968Z,7.70
2023-01-11T20:17:03.245Z,7.70
2023-01-11T20:19:32.295Z,7.70
2023-01-11T20:22:01.403Z,7.70
2023-01-11T20:24:30.466Z,7.70
2023-01-11T20:27:02.957Z,7.60
2023-01-11T20:29:33.275Z,7.70
2023-01-11T20:32:18.901Z,7.60
2023-01-11T20:35:15.603Z,7.60
2023-01-11T20:37:44.501Z,7.60
2023-01-11T20:45:05.640Z,7.60
2023-01-11T20:47:49.801Z,7.50
2023-01-11T20:50:18.981Z,7.50
2023-01-11T20:52:50.256Z,7.50
2023-01-11T20:56:05.566Z,7.50
2023-01-11T20:59:25.865Z,7.50
2023-01-11T21:02:32.375Z,7.40
2023-01-11T21:05:06.396Z,7.30
2023-01-11T21:07:35.529Z,7.40
2023-01-11T21:10:04.460Z,7.40
2023-01-11T21:15:10.536Z,7.30
2023-01-11T21:17:40.737Z,7.30
2023-01-11T21:20:11.530Z,7.30
2023-01-11T21:22:40.369Z,7.30
2023-01-11T21:25:14.571Z,7.30
2023-01-11T21:27:43.473Z,7.30
2023-01-11T21:30:13.265Z,7.30
2023-01-11T21:32:43.558Z,7.30
2023-01-11T21:35:12.701Z,7.30
2023-01-11T21:37:41.595Z,7.30
2023-01-11T21:40:14.185Z,7.30
2023-01-11T21:42:43.857Z,7.20
2023-01-11T21:45:13.154Z,7.20
2023-01-11T21:47:45.786Z,7.20
2023-01-11T21:50:14.549Z,7.20
2023-01-11T21:52:43.394Z,7.10
2023-01-11T21:55:12.213Z,7.00
2023-01-11T21:57:40.994Z,7.00
2023-01-11T22:00:14.148Z,7.00
2023-01-11T22:02:44.482Z,7.00
2023-01-11T22:05:13.256Z,7.00
2023-01-11T22:07:43.589Z,6.80
2023-01-11T22:10:12.969Z,6.80
2023-01-11T22:12:41.842Z,6.90
2023-01-11T22:15:11.594Z,6.90
2023-01-11T22:17:40.397Z,6.90
2023-01-11T22:20:15.230Z,6.90
2023-01-11T22:22:44.015Z,6.80
2023-01-11T22:25:12.770Z,6.90
2023-01-11T22:27:41.421Z,6.80
2023-01-11T22:30:12.687Z,6.70
2023-01-11T22:32:43.416Z,6.70
2023-01-11T22:35:13.536Z,6.70
2023-01-11T22:37:42.319Z,6.60
2023-01-11T22:40:14.486Z,6.60
2023-01-11T22:42:43.305Z,6.50
2023-01-11T22:45:13.013Z,6.50
2023-01-11T22:47:41.752Z,6.50
2023-01-11T22:50:13.527Z,6.60
2023-01-11T22:52:42.245Z,6.50
2023-01-11T22:55:11.460Z,6.40
2023-01-11T22:57:40.194Z,6.40
2023-01-11T23:00:12.260Z,6.40
2023-01-11T23:02:40.916Z,6.40
2023-01-11T23:09:37.903Z,6.40
2023-01-11T23:12:25.107Z,6.30
2023-01-11T23:14:53.751Z,6.10
2023-01-11T23:17:22.552Z,6.20
2023-01-11T23:19:51.305Z,6.20
2023-01-11T23:22:21.065Z,6.10
2023-01-11T23:24:51.188Z,6.20
2023-01-11T23:27:20.086Z,6.10
2023-01-11T23:29:48.861Z,6.10
2023-01-11T23:32:17.627Z,6.00
2023-01-11T23:34:46.423Z,6.00
2023-01-11T23:37:15.044Z,5.90
2023-01-11T23:39:43.733Z,5.90
2023-01-11T23:42:27.868Z,5.90
2023-01-11T23:44:57.750Z,5.80
2023-01-11T23:47:29.635Z,5.80
2023-01-11T23:50:00.968Z,5.80
2023-01-11T23:52:32.430Z,5.70
2023-01-11T23:55:01.570Z,5.70
2023-01-11T23:57:31.723Z,5.80
